sensor_id;sensor_type;location;lat;lon;timestamp;P1;durP1;ratioP1;P2;durP2;ratioP2
57233;SDS011;43090;52.604;13.318;2023-08-21T00:00:05;19.10;;;9.57;;
57233;SDS011;43090;52.604;13.318;2023-08-21T00:02:33;18.70;;;9.40;;
57233;SDS011;43090;52.604;13.318;2023-08-21T00:07:26;15.30;;;8.85;;
57233;SDS011;43090;52.604;13.318;2023-08-21T00:09:52;14.95;;;8.20;;
57233;SDS011;43090;52.604;13.318;2023-08-21T00:12:19;14.98;;;7.97;;
57233;SDS011;43090;52.604;13.318;2023-08-21T00:14:45;14.98;;;8.48;;
57233;SDS011;43090;52.604;13.318;2023-08-21T00:17:12;15.57;;;8.05;;
57233;SDS011;43090;52.604;13.318;2023-08-21T00:19:38;14.02;;;8.68;;
57233;SDS011;43090;52.604;13.318;2023-08-21T00:22:05;13.80;;;8.38;;
57233;SDS011;43090;52.604;13.318;2023-08-21T00:24:31;12.98;;;9.02;;
57233;SDS011;43090;52.604;13.318;2023-08-21T00:26:57;12.13;;;8.30;;
57233;SDS011;43090;52.604;13.318;2023-08-21T00:29:24;12.73;;;8.63;;
57233;SDS011;43090;52.604;13.318;2023-08-21T00:31:50;21.10;;;8.95;;
57233;SDS011;43090;52.604;13.318;2023-08-21T00:34:17;14.43;;;8.63;;
57233;SDS011;43090;52.604;13.318;2023-08-21T00:36:43;16.83;;;9.50;;
57233;SDS011;43090;52.604;13.318;2023-08-21T00:39:10;16.67;;;9.32;;
57233;SDS011;43090;52.604;13.318;2023-08-21T00:41:36;16.70;;;9.43;;
57233;SDS011;43090;52.604;13.318;2023-08-21T00:44:03;21.80;;;9.55;;
57233;SDS011;43090;52.604;13.318;2023-08-21T00:46:30;12.48;;;8.35;;
57233;SDS011;43090;52.604;13.318;2023-08-21T00:48:57;18.88;;;8.88;;
57233;SDS011;43090;52.604;13.318;2023-08-21T00:53:50;17.92;;;8.80;;
57233;SDS011;43090;52.604;13.318;2023-08-21T00:58:44;15.38;;;9.05;;
57233;SDS011;43090;52.604;13.318;2023-08-21T01:01:11;13.82;;;8.70;;
57233;SDS011;43090;52.604;13.318;2023-08-21T01:03:41;15.63;;;9.40;;
57233;SDS011;43090;52.604;13.318;2023-08-21T01:08:38;17.08;;;9.95;;
57233;SDS011;43090;52.604;13.318;2023-08-21T01:11:15;15.65;;;8.90;;
57233;SDS011;43090;52.604;13.318;2023-08-21T01:14:08;12.63;;;8.60;;
57233;SDS011;43090;52.604;13.318;2023-08-21T01:16:43;16.15;;;9.15;;
57233;SDS011;43090;52.604;13.318;2023-08-21T01:19:14;15.25;;;9.13;;
57233;SDS011;43090;52.604;13.318;2023-08-21T01:21:50;15.45;;;9.27;;
57233;SDS011;43090;52.604;13.318;2023-08-21T01:26:45;13.45;;;8.75;;
57233;SDS011;43090;52.604;13.318;2023-08-21T01:29:12;14.05;;;8.27;;
57233;SDS011;43090;52.604;13.318;2023-08-21T01:31:38;15.68;;;10.05;;
57233;SDS011;43090;52.604;13.318;2023-08-21T01:34:08;17.25;;;9.32;;
57233;SDS011;43090;52.604;13.318;2023-08-21T01:52:29;22.02;;;11.38;;
57233;SDS011;43090;52.604;13.318;2023-08-21T01:54:55;15.32;;;9.85;;
57233;SDS011;43090;52.604;13.318;2023-08-21T01:57:22;14.43;;;8.95;;
57233;SDS011;43090;52.604;13.318;2023-08-21T01:59:49;15.07;;;8.95;;
57233;SDS011;43090;52.604;13.318;2023-08-21T02:02:15;18.60;;;9.30;;
57233;SDS011;43090;52.604;13.318;2023-08-21T02:04:42;18.95;;;9.85;;
57233;SDS011;43090;52.604;13.318;2023-08-21T02:09:35;15.75;;;10.23;;
57233;SDS011;43090;52.604;13.318;2023-08-21T02:12:01;16.30;;;9.98;;
57233;SDS011;43090;52.604;13.318;2023-08-21T02:16:54;15.25;;;9.02;;
57233;SDS011;43090;52.604;13.318;2023-08-21T02:19:21;16.63;;;9.38;;
57233;SDS011;43090;52.604;13.318;2023-08-21T02:24:14;13.80;;;8.85;;
57233;SDS011;43090;52.604;13.318;2023-08-21T02:26:40;14.73;;;9.18;;
57233;SDS011;43090;52.604;13.318;2023-08-21T02:29:08;18.65;;;8.27;;
57233;SDS011;43090;52.604;13.318;2023-08-21T02:34:01;13.52;;;8.80;;
57233;SDS011;43090;52.604;13.318;2023-08-21T02:36:28;15.70;;;8.98;;
57233;SDS011;43090;52.604;13.318;2023-08-21T02:38:55;16.48;;;8.88;;
57233;SDS011;43090;52.604;13.318;2023-08-21T02:41:22;17.30;;;9.48;;
57233;SDS011;43090;52.604;13.318;2023-08-21T02:43:48;17.58;;;8.80;;
57233;SDS011;43090;52.604;13.318;2023-08-21T02:46:16;14.27;;;8.73;;
57233;SDS011;43090;52.604;13.318;2023-08-21T02:48:43;13.95;;;8.50;;
57233;SDS011;43090;52.604;13.318;2023-08-21T02:53:39;12.77;;;7.72;;
57233;SDS011;43090;52.604;13.318;2023-08-21T02:56:24;14.63;;;8.80;;
57233;SDS011;43090;52.604;13.318;2023-08-21T03:01:17;14.98;;;7.43;;
57233;SDS011;43090;52.604;13.318;2023-08-21T03:03:44;10.98;;;7.38;;
57233;SDS011;43090;52.604;13.318;2023-08-21T03:06:11;11.02;;;7.57;;
57233;SDS011;43090;52.604;13.318;2023-08-21T03:08:37;10.93;;;7.50;;
57233;SDS011;43090;52.604;13.318;2023-08-21T03:13:30;17.73;;;8.20;;
57233;SDS011;43090;52.604;13.318;2023-08-21T03:15:57;11.57;;;7.15;;
57233;SDS011;43090;52.604;13.318;2023-08-21T03:18:23;10.35;;;6.65;;
57233;SDS011;43090;52.604;13.318;2023-08-21T03:20:53;10.82;;;6.93;;
57233;SDS011;43090;52.604;13.318;2023-08-21T03:23:19;12.15;;;7.22;;
57233;SDS011;43090;52.604;13.318;2023-08-21T03:25:46;15.43;;;7.30;;
57233;SDS011;43090;52.604;13.318;2023-08-21T03:28:12;15.50;;;7.50;;
57233;SDS011;43090;52.604;13.318;2023-08-21T03:30:39;15.00;;;7.80;;
57233;SDS011;43090;52.604;13.318;2023-08-21T03:33:06;9.85;;;6.63;;
57233;SDS011;43090;52.604;13.318;2023-08-21T03:35:33;12.23;;;7.00;;
57233;SDS011;43090;52.604;13.318;2023-08-21T03:40:26;9.35;;;6.65;;
57233;SDS011;43090;52.604;13.318;2023-08-21T03:45:19;12.60;;;6.82;;
57233;SDS011;43090;52.604;13.318;2023-08-21T03:47:46;9.43;;;6.55;;
57233;SDS011;43090;52.604;13.318;2023-08-21T03:52:39;10.85;;;6.85;;
57233;SDS011;43090;52.604;13.318;2023-08-21T03:55:06;9.52;;;6.75;;
57233;SDS011;43090;52.604;13.318;2023-08-21T03:57:32;11.55;;;6.85;;
57233;SDS011;43090;52.604;13.318;2023-08-21T03:59:59;11.52;;;6.63;;
57233;SDS011;43090;52.604;13.318;2023-08-21T04:02:25;14.40;;;6.20;;
57233;SDS011;43090;52.604;13.318;2023-08-21T04:04:52;13.23;;;6.40;;
57233;SDS011;43090;52.604;13.318;2023-08-21T04:07:18;14.20;;;7.20;;
57233;SDS011;43090;52.604;13.318;2023-08-21T04:09:45;12.90;;;6.97;;
57233;SDS011;43090;52.604;13.318;2023-08-21T04:14:39;12.52;;;6.10;;
57233;SDS011;43090;52.604;13.318;2023-08-21T04:17:05;11.07;;;6.00;;
57233;SDS011;43090;52.604;13.318;2023-08-21T04:19:32;11.52;;;7.10;;
57233;SDS011;43090;52.604;13.318;2023-08-21T04:22:00;8.27;;;5.90;;
57233;SDS011;43090;52.604;13.318;2023-08-21T04:24:26;12.20;;;5.85;;
57233;SDS011;43090;52.604;13.318;2023-08-21T04:26:53;8.00;;;6.10;;
57233;SDS011;43090;52.604;13.318;2023-08-21T04:29:19;11.25;;;6.35;;
57233;SDS011;43090;52.604;13.318;2023-08-21T04:31:46;9.35;;;6.47;;
57233;SDS011;43090;52.604;13.318;2023-08-21T04:36:39;18.60;;;7.53;;
57233;SDS011;43090;52.604;13.318;2023-08-21T04:39:05;9.02;;;6.28;;
57233;SDS011;43090;52.604;13.318;2023-08-21T04:41:31;16.25;;;6.47;;
57233;SDS011;43090;52.604;13.318;2023-08-21T04:43:58;13.02;;;7.75;;
57233;SDS011;43090;52.604;13.318;2023-08-21T04:46:26;14.65;;;7.25;;
57233;SDS011;43090;52.604;13.318;2023-08-21T04:48:52;12.60;;;6.50;;
57233;SDS011;43090;52.604;13.318;2023-08-21T04:51:19;14.18;;;7.05;;
57233;SDS011;43090;52.604;13.318;2023-08-21T04:53:46;10.32;;;6.78;;
57233;SDS011;43090;52.604;13.318;2023-08-21T04:56:13;12.52;;;6.55;;
57233;SDS011;43090;52.604;13.318;2023-08-21T04:58:39;10.23;;;6.47;;
57233;SDS011;43090;52.604;13.318;2023-08-21T05:01:06;10.70;;;7.25;;
57233;SDS011;43090;52.604;13.318;2023-08-21T05:03:32;12.57;;;7.40;;
57233;SDS011;43090;52.604;13.318;2023-08-21T05:05:59;9.55;;;6.85;;
57233;SDS011;43090;52.604;13.318;2023-08-21T05:08:25;11.30;;;6.47;;
57233;SDS011;43090;52.604;13.318;2023-08-21T05:10:56;14.20;;;7.82;;
57233;SDS011;43090;52.604;13.318;2023-08-21T05:13:23;13.85;;;7.85;;
57233;SDS011;43090;52.604;13.318;2023-08-21T05:15:51;12.20;;;7.35;;
57233;SDS011;43090;52.604;13.318;2023-08-21T05:18:24;10.57;;;6.93;;
57233;SDS011;43090;52.604;13.318;2023-08-21T05:20:53;11.85;;;7.70;;
57233;SDS011;43090;52.604;13.318;2023-08-21T05:23:20;12.80;;;8.05;;
57233;SDS011;43090;52.604;13.318;2023-08-21T05:25:50;9.75;;;6.70;;
57233;SDS011;43090;52.604;13.318;2023-08-21T05:28:19;11.88;;;7.50;;
57233;SDS011;43090;52.604;13.318;2023-08-21T05:33:12;11.10;;;6.78;;
57233;SDS011;43090;52.604;13.318;2023-08-21T05:38:05;14.38;;;8.38;;
57233;SDS011;43090;52.604;13.318;2023-08-21T05:40:32;10.10;;;7.00;;
57233;SDS011;43090;52.604;13.318;2023-08-21T05:42:58;13.25;;;8.30;;
57233;SDS011;43090;52.604;13.318;2023-08-21T05:45:25;12.95;;;7.63;;
57233;SDS011;43090;52.604;13.318;2023-08-21T05:47:51;10.27;;;7.45;;
57233;SDS011;43090;52.604;13.318;2023-08-21T05:52:44;10.45;;;7.63;;
57233;SDS011;43090;52.604;13.318;2023-08-21T05:55:11;14.63;;;9.05;;
57233;SDS011;43090;52.604;13.318;2023-08-21T05:57:38;15.70;;;8.52;;
57233;SDS011;43090;52.604;13.318;2023-08-21T06:00:04;12.73;;;8.55;;
57233;SDS011;43090;52.604;13.318;2023-08-21T06:02:34;14.40;;;7.95;;
57233;SDS011;43090;52.604;13.318;2023-08-21T06:05:01;12.13;;;7.95;;
57233;SDS011;43090;52.604;13.318;2023-08-21T06:07:29;11.88;;;7.93;;
57233;SDS011;43090;52.604;13.318;2023-08-21T06:09:55;10.10;;;7.88;;
57233;SDS011;43090;52.604;13.318;2023-08-21T06:12:22;12.98;;;8.73;;
57233;SDS011;43090;52.604;13.318;2023-08-21T06:14:49;13.13;;;8.60;;
57233;SDS011;43090;52.604;13.318;2023-08-21T06:17:15;16.55;;;9.23;;
57233;SDS011;43090;52.604;13.318;2023-08-21T06:22:08;13.57;;;8.52;;
57233;SDS011;43090;52.604;13.318;2023-08-21T06:27:01;16.63;;;9.70;;
57233;SDS011;43090;52.604;13.318;2023-08-21T06:29:31;14.30;;;8.82;;
57233;SDS011;43090;52.604;13.318;2023-08-21T06:31:57;16.13;;;10.23;;
57233;SDS011;43090;52.604;13.318;2023-08-21T06:34:24;14.95;;;8.52;;
57233;SDS011;43090;52.604;13.318;2023-08-21T06:36:50;14.25;;;8.82;;
57233;SDS011;43090;52.604;13.318;2023-08-21T06:39:17;17.23;;;9.63;;
57233;SDS011;43090;52.604;13.318;2023-08-21T06:41:43;15.25;;;9.00;;
57233;SDS011;43090;52.604;13.318;2023-08-21T06:44:10;11.68;;;7.85;;
57233;SDS011;43090;52.604;13.318;2023-08-21T06:46:36;13.55;;;9.02;;
57233;SDS011;43090;52.604;13.318;2023-08-21T06:49:03;12.55;;;8.45;;
57233;SDS011;43090;52.604;13.318;2023-08-21T06:53:57;18.13;;;10.87;;
57233;SDS011;43090;52.604;13.318;2023-08-21T06:58:50;17.42;;;9.65;;
57233;SDS011;43090;52.604;13.318;2023-08-21T07:03:43;15.27;;;8.90;;
57233;SDS011;43090;52.604;13.318;2023-08-21T07:06:09;17.95;;;9.88;;
57233;SDS011;43090;52.604;13.318;2023-08-21T07:08:36;16.42;;;8.38;;
57233;SDS011;43090;52.604;13.318;2023-08-21T07:11:04;13.13;;;8.02;;
57233;SDS011;43090;52.604;13.318;2023-08-21T07:13:30;15.68;;;7.78;;
57233;SDS011;43090;52.604;13.318;2023-08-21T07:15:57;19.30;;;7.78;;
57233;SDS011;43090;52.604;13.318;2023-08-21T07:18:23;11.68;;;7.60;;
57233;SDS011;43090;52.604;13.318;2023-08-21T07:20:53;14.55;;;8.50;;
57233;SDS011;43090;52.604;13.318;2023-08-21T07:30:29;12.45;;;6.28;;
57233;SDS011;43090;52.604;13.318;2023-08-21T07:33:29;15.15;;;7.22;;
57233;SDS011;43090;52.604;13.318;2023-08-21T07:36:50;10.82;;;6.32;;
57233;SDS011;43090;52.604;13.318;2023-08-21T07:41:43;19.00;;;5.72;;
57233;SDS011;43090;52.604;13.318;2023-08-21T07:46:42;8.20;;;4.97;;
57233;SDS011;43090;52.604;13.318;2023-08-21T07:49:32;9.25;;;5.43;;
57233;SDS011;43090;52.604;13.318;2023-08-21T07:52:08;12.60;;;5.65;;
57233;SDS011;43090;52.604;13.318;2023-08-21T07:57:01;7.53;;;5.30;;
57233;SDS011;43090;52.604;13.318;2023-08-21T07:59:30;12.48;;;4.88;;
57233;SDS011;43090;52.604;13.318;2023-08-21T08:04:45;5.35;;;2.95;;
57233;SDS011;43090;52.604;13.318;2023-08-21T08:07:12;4.22;;;2.53;;
57233;SDS011;43090;52.604;13.318;2023-08-21T08:09:41;6.15;;;2.65;;
57233;SDS011;43090;52.604;13.318;2023-08-21T08:12:08;5.88;;;2.40;;
57233;SDS011;43090;52.604;13.318;2023-08-21T08:14:35;8.10;;;2.60;;
57233;SDS011;43090;52.604;13.318;2023-08-21T08:19:28;4.22;;;2.10;;
57233;SDS011;43090;52.604;13.318;2023-08-21T08:24:21;3.72;;;1.50;;
57233;SDS011;43090;52.604;13.318;2023-08-21T08:29:16;3.50;;;1.35;;
57233;SDS011;43090;52.604;13.318;2023-08-21T08:37:16;6.22;;;1.50;;
57233;SDS011;43090;52.604;13.318;2023-08-21T08:39:51;4.63;;;1.80;;
57233;SDS011;43090;52.604;13.318;2023-08-21T08:42:36;3.05;;;1.45;;
57233;SDS011;43090;52.604;13.318;2023-08-21T08:45:03;5.25;;;1.42;;
57233;SDS011;43090;52.604;13.318;2023-08-21T08:47:31;2.15;;;1.10;;
57233;SDS011;43090;52.604;13.318;2023-08-21T08:50:10;12.10;;;1.85;;
57233;SDS011;43090;52.604;13.318;2023-08-21T08:52:37;3.10;;;1.50;;
57233;SDS011;43090;52.604;13.318;2023-08-21T08:55:06;3.78;;;1.30;;
57233;SDS011;43090;52.604;13.318;2023-08-21T08:57:33;6.50;;;1.80;;
57233;SDS011;43090;52.604;13.318;2023-08-21T09:00:01;5.50;;;1.50;;
57233;SDS011;43090;52.604;13.318;2023-08-21T09:02:28;6.28;;;1.63;;
57233;SDS011;43090;52.604;13.318;2023-08-21T09:04:55;4.03;;;1.27;;
57233;SDS011;43090;52.604;13.318;2023-08-21T09:07:27;6.40;;;1.67;;
57233;SDS011;43090;52.604;13.318;2023-08-21T09:12:21;4.53;;;1.17;;
57233;SDS011;43090;52.604;13.318;2023-08-21T09:14:47;10.43;;;1.48;;
57233;SDS011;43090;52.604;13.318;2023-08-21T09:17:14;5.65;;;1.98;;
57233;SDS011;43090;52.604;13.318;2023-08-21T09:19:42;5.82;;;1.48;;
57233;SDS011;43090;52.604;13.318;2023-08-21T09:22:14;5.63;;;1.25;;
57233;SDS011;43090;52.604;13.318;2023-08-21T09:24:59;5.15;;;1.40;;
57233;SDS011;43090;52.604;13.318;2023-08-21T09:27:26;3.63;;;1.27;;
57233;SDS011;43090;52.604;13.318;2023-08-21T09:32:19;7.63;;;1.52;;
57233;SDS011;43090;52.604;13.318;2023-08-21T09:34:46;5.07;;;1.63;;
57233;SDS011;43090;52.604;13.318;2023-08-21T09:39:39;6.78;;;1.50;;
57233;SDS011;43090;52.604;13.318;2023-08-21T09:42:07;4.93;;;1.42;;
57233;SDS011;43090;52.604;13.318;2023-08-21T09:44:37;7.20;;;1.83;;
57233;SDS011;43090;52.604;13.318;2023-08-21T09:47:07;2.50;;;1.27;;
57233;SDS011;43090;52.604;13.318;2023-08-21T09:49:36;4.40;;;1.73;;
57233;SDS011;43090;52.604;13.318;2023-08-21T09:52:07;3.50;;;1.48;;
57233;SDS011;43090;52.604;13.318;2023-08-21T09:54:37;6.65;;;1.80;;
57233;SDS011;43090;52.604;13.318;2023-08-21T09:57:04;3.88;;;1.63;;
57233;SDS011;43090;52.604;13.318;2023-08-21T09:59:31;3.75;;;1.42;;
57233;SDS011;43090;52.604;13.318;2023-08-21T10:01:59;8.40;;;1.55;;
57233;SDS011;43090;52.604;13.318;2023-08-21T10:04:30;5.13;;;1.38;;
57233;SDS011;43090;52.604;13.318;2023-08-21T10:06:58;6.43;;;1.40;;
57233;SDS011;43090;52.604;13.318;2023-08-21T10:09:29;8.43;;;1.58;;
57233;SDS011;43090;52.604;13.318;2023-08-21T10:11:56;5.40;;;1.70;;
57233;SDS011;43090;52.604;13.318;2023-08-21T10:14:24;7.00;;;1.60;;
57233;SDS011;43090;52.604;13.318;2023-08-21T10:16:53;5.22;;;1.60;;
57233;SDS011;43090;52.604;13.318;2023-08-21T10:19:20;3.78;;;1.35;;
57233;SDS011;43090;52.604;13.318;2023-08-21T10:24:28;4.68;;;1.30;;
57233;SDS011;43090;52.604;13.318;2023-08-21T10:27:02;4.88;;;1.40;;
57233;SDS011;43090;52.604;13.318;2023-08-21T10:29:35;5.07;;;1.98;;
57233;SDS011;43090;52.604;13.318;2023-08-21T10:32:03;3.42;;;1.13;;
57233;SDS011;43090;52.604;13.318;2023-08-21T10:34:32;4.60;;;1.50;;
57233;SDS011;43090;52.604;13.318;2023-08-21T10:39:39;4.63;;;1.27;;
57233;SDS011;43090;52.604;13.318;2023-08-21T10:42:21;6.53;;;1.50;;
57233;SDS011;43090;52.604;13.318;2023-08-21T10:45:10;3.80;;;1.50;;
57233;SDS011;43090;52.604;13.318;2023-08-21T10:51:34;6.32;;;1.45;;
57233;SDS011;43090;52.604;13.318;2023-08-21T10:54:10;6.57;;;1.45;;
57233;SDS011;43090;52.604;13.318;2023-08-21T10:56:37;4.90;;;1.40;;
57233;SDS011;43090;52.604;13.318;2023-08-21T11:01:43;7.80;;;2.00;;
57233;SDS011;43090;52.604;13.318;2023-08-21T11:04:11;7.25;;;1.63;;
57233;SDS011;43090;52.604;13.318;2023-08-21T11:06:38;7.30;;;1.88;;
57233;SDS011;43090;52.604;13.318;2023-08-21T11:09:12;5.43;;;1.40;;
57233;SDS011;43090;52.604;13.318;2023-08-21T11:11:39;5.95;;;1.77;;
57233;SDS011;43090;52.604;13.318;2023-08-21T11:17:34;7.00;;;1.88;;
57233;SDS011;43090;52.604;13.318;2023-08-21T11:20:09;6.32;;;1.30;;
57233;SDS011;43090;52.604;13.318;2023-08-21T11:22:35;6.65;;;1.30;;
57233;SDS011;43090;52.604;13.318;2023-08-21T11:29:57;3.85;;;1.10;;
57233;SDS011;43090;52.604;13.318;2023-08-21T11:32:24;4.35;;;1.55;;
57233;SDS011;43090;52.604;13.318;2023-08-21T11:37:19;2.22;;;1.10;;
57233;SDS011;43090;52.604;13.318;2023-08-21T11:39:53;8.05;;;2.15;;
57233;SDS011;43090;52.604;13.318;2023-08-21T11:42:29;3.88;;;1.35;;
57233;SDS011;43090;52.604;13.318;2023-08-21T11:44:58;4.63;;;1.35;;
57233;SDS011;43090;52.604;13.318;2023-08-21T11:47:31;9.50;;;1.60;;
57233;SDS011;43090;52.604;13.318;2023-08-21T11:50:06;4.65;;;1.10;;
57233;SDS011;43090;52.604;13.318;2023-08-21T11:52:36;3.55;;;0.98;;
57233;SDS011;43090;52.604;13.318;2023-08-21T11:55:08;4.65;;;1.10;;
57233;SDS011;43090;52.604;13.318;2023-08-21T11:57:47;5.60;;;1.60;;
57233;SDS011;43090;52.604;13.318;2023-08-21T12:00:18;2.85;;;1.00;;
57233;SDS011;43090;52.604;13.318;2023-08-21T12:02:55;2.50;;;1.10;;
57233;SDS011;43090;52.604;13.318;2023-08-21T12:05:26;3.97;;;1.17;;
57233;SDS011;43090;52.604;13.318;2023-08-21T12:07:54;4.45;;;1.40;;
57233;SDS011;43090;52.604;13.318;2023-08-21T12:10:27;3.97;;;1.38;;
57233;SDS011;43090;52.604;13.318;2023-08-21T12:13:04;4.18;;;1.30;;
57233;SDS011;43090;52.604;13.318;2023-08-21T12:19:05;5.70;;;1.42;;
57233;SDS011;43090;52.604;13.318;2023-08-21T12:21:39;6.35;;;1.50;;
57233;SDS011;43090;52.604;13.318;2023-08-21T12:24:06;5.68;;;1.60;;
57233;SDS011;43090;52.604;13.318;2023-08-21T12:26:33;4.45;;;1.27;;
57233;SDS011;43090;52.604;13.318;2023-08-21T12:29:14;2.65;;;1.02;;
57233;SDS011;43090;52.604;13.318;2023-08-21T12:31:41;5.38;;;1.30;;
57233;SDS011;43090;52.604;13.318;2023-08-21T12:34:08;10.93;;;2.15;;
57233;SDS011;43090;52.604;13.318;2023-08-21T12:36:35;4.55;;;1.52;;
57233;SDS011;43090;52.604;13.318;2023-08-21T12:39:03;3.15;;;1.10;;
57233;SDS011;43090;52.604;13.318;2023-08-21T12:41:30;9.18;;;1.70;;
57233;SDS011;43090;52.604;13.318;2023-08-21T12:43:59;4.35;;;1.30;;
57233;SDS011;43090;52.604;13.318;2023-08-21T12:46:26;7.80;;;1.70;;
57233;SDS011;43090;52.604;13.318;2023-08-21T12:48:56;4.70;;;1.10;;
57233;SDS011;43090;52.604;13.318;2023-08-21T12:51:23;6.38;;;1.23;;
57233;SDS011;43090;52.604;13.318;2023-08-21T12:53:57;4.07;;;1.75;;
57233;SDS011;43090;52.604;13.318;2023-08-21T12:56:28;4.53;;;1.08;;
57233;SDS011;43090;52.604;13.318;2023-08-21T13:01:21;3.72;;;1.05;;
57233;SDS011;43090;52.604;13.318;2023-08-21T13:03:48;3.63;;;1.00;;
57233;SDS011;43090;52.604;13.318;2023-08-21T13:06:15;4.50;;;1.30;;
57233;SDS011;43090;52.604;13.318;2023-08-21T13:08:41;3.67;;;1.00;;
57233;SDS011;43090;52.604;13.318;2023-08-21T13:11:08;6.03;;;1.08;;
57233;SDS011;43090;52.604;13.318;2023-08-21T13:13:36;6.88;;;1.17;;
57233;SDS011;43090;52.604;13.318;2023-08-21T13:18:29;2.97;;;1.20;;
57233;SDS011;43090;52.604;13.318;2023-08-21T13:23:22;3.95;;;1.10;;
57233;SDS011;43090;52.604;13.318;2023-08-21T13:28:16;4.78;;;0.88;;
57233;SDS011;43090;52.604;13.318;2023-08-21T13:30:42;3.58;;;1.50;;
57233;SDS011;43090;52.604;13.318;2023-08-21T13:35:35;5.20;;;1.00;;
57233;SDS011;43090;52.604;13.318;2023-08-21T13:42:56;5.20;;;1.10;;
57233;SDS011;43090;52.604;13.318;2023-08-21T13:45:28;5.72;;;1.10;;
57233;SDS011;43090;52.604;13.318;2023-08-21T13:50:21;10.32;;;1.10;;
57233;SDS011;43090;52.604;13.318;2023-08-21T13:55:14;4.15;;;1.10;;
57233;SDS011;43090;52.604;13.318;2023-08-21T13:57:42;1.95;;;0.80;;
57233;SDS011;43090;52.604;13.318;2023-08-21T14:00:09;6.88;;;1.40;;
57233;SDS011;43090;52.604;13.318;2023-08-21T14:02:41;3.72;;;0.80;;
57233;SDS011;43090;52.604;13.318;2023-08-21T14:05:11;1.98;;;0.73;;
57233;SDS011;43090;52.604;13.318;2023-08-21T14:07:39;4.07;;;1.17;;
57233;SDS011;43090;52.604;13.318;2023-08-21T14:10:07;3.00;;;0.88;;
57233;SDS011;43090;52.604;13.318;2023-08-21T14:12:37;2.42;;;0.80;;
57233;SDS011;43090;52.604;13.318;2023-08-21T14:16:15;3.80;;;1.13;;
57233;SDS011;43090;52.604;13.318;2023-08-21T14:18:42;4.38;;;0.98;;
57233;SDS011;43090;52.604;13.318;2023-08-21T14:23:35;6.33;;;1.13;;
57233;SDS011;43090;52.604;13.318;2023-08-21T14:26:08;2.40;;;0.98;;
57233;SDS011;43090;52.604;13.318;2023-08-21T14:28:37;4.97;;;1.52;;
57233;SDS011;43090;52.604;13.318;2023-08-21T14:31:04;2.03;;;0.60;;
57233;SDS011;43090;52.604;13.318;2023-08-21T14:33:31;6.03;;;1.08;;
57233;SDS011;43090;52.604;13.318;2023-08-21T14:35:58;12.93;;;1.33;;
57233;SDS011;43090;52.604;13.318;2023-08-21T14:38:25;3.90;;;0.90;;
57233;SDS011;43090;52.604;13.318;2023-08-21T14:43:44;2.90;;;1.15;;
57233;SDS011;43090;52.604;13.318;2023-08-21T14:46:11;3.42;;;0.80;;
57233;SDS011;43090;52.604;13.318;2023-08-21T14:49:05;7.95;;;1.20;;
57233;SDS011;43090;52.604;13.318;2023-08-21T14:51:31;6.70;;;0.90;;
57233;SDS011;43090;52.604;13.318;2023-08-21T14:54:01;3.47;;;0.80;;
57233;SDS011;43090;52.604;13.318;2023-08-21T14:56:28;1.92;;;0.80;;
57233;SDS011;43090;52.604;13.318;2023-08-21T14:58:57;2.30;;;0.65;;
57233;SDS011;43090;52.604;13.318;2023-08-21T15:01:24;4.10;;;1.00;;
57233;SDS011;43090;52.604;13.318;2023-08-21T15:03:51;1.88;;;0.70;;
57233;SDS011;43090;52.604;13.318;2023-08-21T15:06:18;5.70;;;0.80;;
57233;SDS011;43090;52.604;13.318;2023-08-21T15:08:44;2.65;;;0.70;;
57233;SDS011;43090;52.604;13.318;2023-08-21T15:11:11;9.68;;;1.38;;
57233;SDS011;43090;52.604;13.318;2023-08-21T15:13:39;4.43;;;1.67;;
57233;SDS011;43090;52.604;13.318;2023-08-21T15:16:06;4.05;;;0.95;;
57233;SDS011;43090;52.604;13.318;2023-08-21T15:18:33;6.03;;;1.20;;
57233;SDS011;43090;52.604;13.318;2023-08-21T15:23:26;2.60;;;0.80;;
57233;SDS011;43090;52.604;13.318;2023-08-21T15:25:53;6.05;;;1.02;;
57233;SDS011;43090;52.604;13.318;2023-08-21T15:28:20;5.20;;;1.88;;
57233;SDS011;43090;52.604;13.318;2023-08-21T15:33:13;5.47;;;0.90;;
57233;SDS011;43090;52.604;13.318;2023-08-21T15:35:42;3.63;;;1.10;;
57233;SDS011;43090;52.604;13.318;2023-08-21T15:38:09;5.53;;;0.80;;
57233;SDS011;43090;52.604;13.318;2023-08-21T15:43:02;5.93;;;1.13;;
57233;SDS011;43090;52.604;13.318;2023-08-21T15:45:32;3.17;;;1.00;;
57233;SDS011;43090;52.604;13.318;2023-08-21T15:50:25;2.53;;;0.70;;
57233;SDS011;43090;52.604;13.318;2023-08-21T15:55:19;6.25;;;1.08;;
57233;SDS011;43090;52.604;13.318;2023-08-21T15:57:46;4.57;;;1.17;;
57233;SDS011;43090;52.604;13.318;2023-08-21T16:02:39;3.47;;;1.10;;
57233;SDS011;43090;52.604;13.318;2023-08-21T16:05:07;10.38;;;1.73;;
57233;SDS011;43090;52.604;13.318;2023-08-21T16:07:34;4.28;;;1.00;;
57233;SDS011;43090;52.604;13.318;2023-08-21T16:12:30;5.32;;;1.40;;
57233;SDS011;43090;52.604;13.318;2023-08-21T16:14:57;4.55;;;1.35;;
57233;SDS011;43090;52.604;13.318;2023-08-21T16:17:23;7.70;;;1.10;;
57233;SDS011;43090;52.604;13.318;2023-08-21T16:19:50;3.20;;;1.00;;
57233;SDS011;43090;52.604;13.318;2023-08-21T16:27:11;5.22;;;1.20;;
57233;SDS011;43090;52.604;13.318;2023-08-21T16:32:04;2.75;;;1.10;;
57233;SDS011;43090;52.604;13.318;2023-08-21T16:34:31;4.50;;;1.33;;
57233;SDS011;43090;52.604;13.318;2023-08-21T16:36:58;5.28;;;1.35;;
57233;SDS011;43090;52.604;13.318;2023-08-21T16:41:51;3.05;;;1.15;;
57233;SDS011;43090;52.604;13.318;2023-08-21T16:49:46;4.78;;;1.27;;
57233;SDS011;43090;52.604;13.318;2023-08-21T16:52:13;7.07;;;1.30;;
57233;SDS011;43090;52.604;13.318;2023-08-21T16:54:39;5.63;;;1.10;;
57233;SDS011;43090;52.604;13.318;2023-08-21T16:57:09;3.72;;;1.27;;
57233;SDS011;43090;52.604;13.318;2023-08-21T16:59:50;8.00;;;1.65;;
57233;SDS011;43090;52.604;13.318;2023-08-21T17:02:19;9.82;;;1.05;;
57233;SDS011;43090;52.604;13.318;2023-08-21T17:04:53;3.30;;;0.88;;
57233;SDS011;43090;52.604;13.318;2023-08-21T17:10:26;3.92;;;0.88;;
57233;SDS011;43090;52.604;13.318;2023-08-21T17:12:57;3.88;;;1.40;;
57233;SDS011;43090;52.604;13.318;2023-08-21T17:15:24;5.53;;;1.33;;
57233;SDS011;43090;52.604;13.318;2023-08-21T17:17:53;3.22;;;1.08;;
57233;SDS011;43090;52.604;13.318;2023-08-21T17:20:38;4.90;;;1.73;;
57233;SDS011;43090;52.604;13.318;2023-08-21T17:23:15;2.70;;;1.02;;
57233;SDS011;43090;52.604;13.318;2023-08-21T17:25:44;4.82;;;1.08;;
57233;SDS011;43090;52.604;13.318;2023-08-21T17:28:18;3.20;;;1.17;;
57233;SDS011;43090;52.604;13.318;2023-08-21T17:33:11;9.75;;;1.42;;
57233;SDS011;43090;52.604;13.318;2023-08-21T17:35:37;5.40;;;1.35;;
57233;SDS011;43090;52.604;13.318;2023-08-21T17:40:30;6.30;;;1.40;;
57233;SDS011;43090;52.604;13.318;2023-08-21T17:45:24;4.70;;;1.20;;
57233;SDS011;43090;52.604;13.318;2023-08-21T17:47:50;1.63;;;0.85;;
57233;SDS011;43090;52.604;13.318;2023-08-21T17:50:19;2.65;;;0.70;;
57233;SDS011;43090;52.604;13.318;2023-08-21T17:55:13;2.92;;;1.33;;
57233;SDS011;43090;52.604;13.318;2023-08-21T18:05:01;8.98;;;1.65;;
57233;SDS011;43090;52.604;13.318;2023-08-21T18:07:30;3.97;;;1.20;;
57233;SDS011;43090;52.604;13.318;2023-08-21T18:12:40;4.75;;;1.58;;
57233;SDS011;43090;52.604;13.318;2023-08-21T18:15:07;7.70;;;1.02;;
57233;SDS011;43090;52.604;13.318;2023-08-21T18:17:34;2.78;;;1.08;;
57233;SDS011;43090;52.604;13.318;2023-08-21T18:22:27;3.88;;;1.20;;